OITK  Khoy  Airport

Khoy, Iran

Add Bookmark
ICAO OITK
IATA KHY
Type Airport
Status Operational
Latitude
38° 25' 39" N
38.427502
Longitude
44° 58' 24" E
44.973598
Local (GMT +4.5 ) UTC
Aug 31, 2016 08:27 pm Aug 31, 2016 15:57
Sunrise-Sunset Local UTC
Begin Civil Twilight 06:30 am 02:00
Sunrise 06:57 am 02:27
Sunset 08:02 pm 15:32
End Civil Twilight 08:29 pm 15:59
VFR
VFR
MVFR
MVFR
IFR
IFR
LIFR
LIFR
Unknown
Unavailable

Current Weather

METAR Observed VFR
OITK 311300Z 15010KT 9999 BKN040 36/05 Q1009 Wed, Aug 31, 2016 @ 13:00 UTC
(2 Hours, 57 Minutes ago)
Visual Flight Rules
Wind Visibility Clouds Conditions
150° at 10 knots (19 kph) 10 km or more
  • Broken at 4,000 ft AGL
  • No significant weather
Temperatures Readings Precipitation
Current Temp
36°C
97°F
Dewpoint
5°C
41°F
Humidity 14%
Altimeter 29.79" Hg
Sea Level Pressure 1,009 mb
Field Elevation
1,107 m
3,632 ft
None Recorded
-
-

CheckWX.com is intended as a tool to help pilots better visualize weather data. It is not intended as a substitute for an official weather briefing obtained from a Flight Service Station. CheckWX.com does not meet the FAA requirements for an official pre-flight weather briefing. Therefore, it's important that pilots still call and obtain an official FSS pre-flight weather briefing.

© 2007-2016 CheckWX.com
15:57:06 UTC